Time;durP1;ratioP1;P1;durP2;ratioP2;P2;SDS_P1;SDS_P2;PMS_P1;PMS_P2;Temp;Humidity;BMP_temperature;BMP_pressure;BME280_temperature;BME280_humidity;BME280_pressure;Samples;Min_cycle;Max_cycle;Signal;HPM_P1;HPM_P2
2020/12/11 00:01:37;;;;;;;0.67;0.57;;;4.00;99.90;;;;;;5078866;28;20220;-82
2020/12/11 00:04:03;;;;;;;0.63;0.47;;;4.10;99.90;;;;;;5077936;28;20235;-83
2020/12/11 00:06:29;;;;;;;0.37;0.37;;;4.20;99.90;;;;;;5069478;28;20186;-83
2020/12/11 00:08:55;;;;;;;0.77;0.70;;;4.20;99.90;;;;;;5077759;28;20242;-84
2020/12/11 00:11:29;;;;;;;1.00;1.00;;;4.20;99.90;;;;;;5075617;28;20209;-84
2020/12/11 00:13:55;;;;;;;0.70;0.60;;;4.20;99.90;;;;;;5075581;28;20199;-82
2020/12/11 00:16:20;;;;;;;0.40;0.40;;;4.30;99.90;;;;;;5075783;28;20549;-83
2020/12/11 00:18:46;;;;;;;0.20;0.20;;;4.10;99.90;;;;;;5074153;28;20209;-83
2020/12/11 00:21:11;;;;;;;1.10;1.03;;;4.20;99.90;;;;;;5074633;28;20213;-83
2020/12/11 00:23:37;;;;;;;2.13;0.97;;;4.20;99.90;;;;;;5074380;28;20183;-86
2020/12/11 00:26:02;;;;;;;0.67;0.67;;;4.30;99.90;;;;;;5073651;28;20189;-82
2020/12/11 00:28:29;;;;;;;0.40;0.33;;;4.20;99.90;;;;;;5073948;28;20197;-83
2020/12/11 00:30:56;;;;;;;1.30;0.63;;;4.30;99.90;;;;;;5073894;28;20230;-83
2020/12/11 00:33:22;;;;;;;0.93;0.53;;;4.30;99.90;;;;;;5074946;28;20645;-83
2020/12/11 00:35:48;;;;;;;0.40;0.40;;;4.30;99.90;;;;;;5073287;28;20189;-84
2020/12/11 00:38:14;;;;;;;0.40;0.40;;;4.30;99.90;;;;;;5071729;28;20557;-83
2020/12/11 00:40:39;;;;;;;1.83;0.67;;;4.30;99.90;;;;;;5080883;28;20209;-84
2020/12/11 00:43:05;;;;;;;1.80;0.40;;;4.30;99.90;;;;;;5074604;28;20174;-84
2020/12/11 00:45:31;;;;;;;0.83;0.50;;;4.30;99.90;;;;;;5072978;28;20188;-83
2020/12/11 00:47:57;;;;;;;0.77;0.67;;;4.30;99.90;;;;;;5072918;28;20189;-82
2020/12/11 00:50:22;;;;;;;2.13;0.97;;;4.30;99.90;;;;;;5072509;28;20562;-83
2020/12/11 00:52:48;;;;;;;0.33;0.27;;;4.20;99.90;;;;;;5072833;28;20705;-83
2020/12/11 00:55:16;;;;;;;0.67;0.57;;;4.20;99.90;;;;;;5072447;28;20185;-84
2020/12/11 00:57:45;;;;;;;0.87;0.40;;;4.20;99.90;;;;;;5070927;28;20184;-84
2020/12/11 01:00:15;;;;;;;0.40;0.40;;;4.20;99.90;;;;;;5075688;28;20214;-84
2020/12/11 01:02:41;;;;;;;1.03;0.50;;;4.20;99.90;;;;;;5073776;28;20295;-83
2020/12/11 01:05:06;;;;;;;0.30;0.30;;;4.30;99.90;;;;;;5072201;28;20197;-84
2020/12/11 01:07:32;;;;;;;0.37;0.37;;;4.20;99.90;;;;;;5070154;28;20230;-83
2020/12/11 01:09:58;;;;;;;0.10;0.10;;;4.30;99.90;;;;;;5070545;28;20268;-84
2020/12/11 01:12:24;;;;;;;0.80;0.53;;;4.30;99.90;;;;;;5070142;28;20701;-85
2020/12/11 01:14:50;;;;;;;0.50;0.50;;;4.30;99.90;;;;;;5071162;28;20326;-83
2020/12/11 01:17:16;;;;;;;0.93;0.93;;;4.40;99.90;;;;;;5071428;28;20212;-83
2020/12/11 01:19:41;;;;;;;0.93;0.57;;;4.40;99.90;;;;;;5068826;28;20216;-84
2020/12/11 01:22:07;;;;;;;0.67;0.67;;;4.30;99.90;;;;;;5070949;28;20240;-83
2020/12/11 01:24:33;;;;;;;0.43;0.40;;;4.30;99.90;;;;;;5064160;28;20189;-83
2020/12/11 01:26:58;;;;;;;1.37;0.50;;;4.20;99.90;;;;;;5068593;28;20238;-82
2020/12/11 01:29:24;;;;;;;3.77;0.67;;;4.30;99.90;;;;;;5072618;28;20182;-85
2020/12/11 01:31:56;;;;;;;1.30;0.50;;;4.20;99.90;;;;;;5058332;28;20197;-84
2020/12/11 01:34:22;;;;;;;0.73;0.73;;;4.20;99.90;;;;;;5069618;28;20295;-84
2020/12/11 01:36:48;;;;;;;0.80;0.70;;;4.20;99.90;;;;;;5070227;28;20581;-85
2020/12/11 01:39:14;;;;;;;1.97;1.00;;;4.20;99.90;;;;;;5068952;28;20527;-83
2020/12/11 01:41:39;;;;;;;0.17;0.17;;;4.30;99.90;;;;;;5071182;28;20293;-84
2020/12/11 01:44:06;;;;;;;0.47;0.47;;;4.30;99.90;;;;;;5069867;28;20177;-83
2020/12/11 01:46:39;;;;;;;2.67;1.17;;;4.30;99.90;;;;;;5070676;28;20178;-84
2020/12/11 01:49:06;;;;;;;0.60;0.60;;;4.20;99.90;;;;;;5071330;28;20236;-83
2020/12/11 01:51:34;;;;;;;0.67;0.60;;;4.30;99.90;;;;;;5069651;28;20217;-84
2020/12/11 01:54:00;;;;;;;0.70;0.70;;;4.10;99.90;;;;;;5084069;28;20176;-84
2020/12/11 01:56:33;;;;;;;0.33;0.33;;;4.10;99.90;;;;;;5070003;28;20181;-82
2020/12/11 01:59:04;;;;;;;1.80;0.77;;;4.00;99.90;;;;;;5058621;28;20185;-83
2020/12/11 02:01:33;;;;;;;1.60;0.43;;;4.10;99.90;;;;;;5074254;28;20205;-84
2020/12/11 02:03:59;;;;;;;0.30;0.27;;;4.10;99.90;;;;;;5068722;28;20295;-84
2020/12/11 02:06:25;;;;;;;0.90;0.70;;;4.10;99.90;;;;;;5071966;28;20206;-84
2020/12/11 02:08:55;;;;;;;0.20;0.20;;;4.10;99.90;;;;;;5073836;28;20573;-86
2020/12/11 02:11:22;;;;;;;0.53;0.53;;;4.20;99.90;;;;;;5070985;28;20216;-84
2020/12/11 02:13:48;;;;;;;0.40;0.40;;;4.10;99.90;;;;;;5072825;28;20239;-83
2020/12/11 02:16:14;;;;;;;0.50;0.50;;;4.10;99.90;;;;;;5074424;28;20193;-83
2020/12/11 02:18:40;;;;;;;0.43;0.40;;;4.10;99.90;;;;;;5074009;28;20244;-82
2020/12/11 02:21:06;;;;;;;0.23;0.23;;;4.10;99.90;;;;;;5074047;28;20208;-84
2020/12/11 02:23:34;;;;;;;0.30;0.30;;;3.90;99.90;;;;;;5065193;28;20265;-84
2020/12/11 02:25:59;;;;;;;2.63;1.03;;;3.90;99.90;;;;;;5064648;28;20188;-84
2020/12/11 02:28:32;;;;;;;0.67;0.47;;;4.00;99.90;;;;;;5066613;28;20174;-83
2020/12/11 02:30:59;;;;;;;0.40;0.40;;;4.00;99.90;;;;;;5071923;28;20210;-83
2020/12/11 02:33:25;;;;;;;0.70;0.40;;;4.00;99.90;;;;;;5069454;28;20244;-84
2020/12/11 02:35:51;;;;;;;0.60;0.50;;;4.10;99.90;;;;;;5072900;28;20210;-83
2020/12/11 02:38:17;;;;;;;0.37;0.30;;;4.10;99.90;;;;;;5062497;28;20205;-84
2020/12/11 02:40:49;;;;;;;1.40;0.70;;;4.10;99.90;;;;;;5072612;28;20213;-84
2020/12/11 02:43:16;;;;;;;1.13;0.43;;;4.00;99.90;;;;;;5074408;28;20322;-84
2020/12/11 02:45:47;;;;;;;0.77;0.60;;;4.00;99.90;;;;;;5068852;28;20595;-83
2020/12/11 02:48:12;;;;;;;0.40;0.37;;;3.90;99.90;;;;;;5071207;28;20264;-83
2020/12/11 02:50:39;;;;;;;1.13;0.67;;;3.90;99.90;;;;;;5072321;28;20288;-83
2020/12/11 02:53:05;;;;;;;6.83;1.30;;;3.90;99.90;;;;;;5073622;28;20255;-84
2020/12/11 02:55:30;;;;;;;0.70;0.70;;;3.90;99.90;;;;;;5071868;28;20182;-84
2020/12/11 02:57:56;;;;;;;1.60;1.03;;;3.90;99.90;;;;;;5072291;28;20665;-83
2020/12/11 03:00:22;;;;;;;0.30;0.30;;;4.00;99.90;;;;;;5072375;28;20226;-83
2020/12/11 03:02:47;;;;;;;1.20;0.73;;;4.00;99.90;;;;;;5073261;28;20273;-83
2020/12/11 03:05:13;;;;;;;0.30;0.30;;;3.90;99.90;;;;;;5087157;28;20270;-85
2020/12/11 03:07:38;;;;;;;0.40;0.40;;;3.90;99.90;;;;;;5081481;28;20175;-83
2020/12/11 03:10:04;;;;;;;0.63;0.50;;;3.90;99.90;;;;;;5079015;28;20250;-82
2020/12/11 03:12:30;;;;;;;2.40;1.00;;;3.80;99.90;;;;;;5078993;28;20802;-84
2020/12/11 03:14:56;;;;;;;0.57;0.57;;;3.60;99.90;;;;;;5078581;28;20650;-83
2020/12/11 03:17:22;;;;;;;0.60;0.60;;;3.60;99.90;;;;;;5079556;28;20769;-83
2020/12/11 03:19:47;;;;;;;0.63;0.57;;;3.70;99.90;;;;;;5076689;28;20201;-83
2020/12/11 03:22:13;;;;;;;0.70;0.63;;;3.70;99.90;;;;;;5076311;28;20696;-83
2020/12/11 03:24:38;;;;;;;0.53;0.43;;;3.70;99.90;;;;;;5079675;28;20230;-83
2020/12/11 03:27:04;;;;;;;1.27;0.83;;;3.70;99.90;;;;;;5076327;28;20189;-82
2020/12/11 03:29:30;;;;;;;2.43;0.70;;;3.60;99.90;;;;;;5077478;28;20177;-83
2020/12/11 03:31:55;;;;;;;0.20;0.20;;;3.50;99.90;;;;;;5073568;28;20249;-82
2020/12/11 03:34:21;;;;;;;0.47;0.47;;;3.60;99.90;;;;;;5072145;28;20268;-83
2020/12/11 03:36:50;;;;;;;0.53;0.40;;;3.60;99.90;;;;;;5075795;28;20614;-83
2020/12/11 03:39:15;;;;;;;0.57;0.57;;;3.60;99.90;;;;;;5077462;28;20653;-83
2020/12/11 03:41:42;;;;;;;0.37;0.37;;;3.70;99.90;;;;;;5074115;28;20211;-84
2020/12/11 03:44:08;;;;;;;1.37;0.47;;;3.60;99.90;;;;;;5076245;28;20201;-82
2020/12/11 03:46:34;;;;;;;0.50;0.40;;;3.70;99.90;;;;;;5075733;28;20240;-84
2020/12/11 03:48:59;;;;;;;0.43;0.43;;;3.60;99.90;;;;;;5075611;28;20535;-83
2020/12/11 03:51:25;;;;;;;0.80;0.80;;;3.50;99.90;;;;;;5074200;28;20704;-83
2020/12/11 03:53:51;;;;;;;1.23;1.23;;;3.40;99.90;;;;;;5074847;28;20181;-83
2020/12/11 03:56:18;;;;;;;0.30;0.30;;;3.20;99.90;;;;;;5074853;28;20184;-83
2020/12/11 03:58:44;;;;;;;0.77;0.77;;;3.20;99.90;;;;;;5074321;28;20185;-83
2020/12/11 04:01:13;;;;;;;0.53;0.53;;;3.20;99.90;;;;;;5076850;28;20216;-84
2020/12/11 04:03:39;;;;;;;0.43;0.43;;;3.00;99.90;;;;;;5073162;28;20177;-84
2020/12/11 04:06:15;;;;;;;0.40;0.40;;;3.00;99.90;;;;;;5070088;28;20184;-83
2020/12/11 04:08:42;;;;;;;0.67;0.67;;;2.70;99.90;;;;;;5072629;28;20180;-82
2020/12/11 04:11:10;;;;;;;0.60;0.60;;;2.50;99.90;;;;;;5070866;28;20211;-84
2020/12/11 04:13:36;;;;;;;2.17;0.67;;;2.40;99.90;;;;;;5071941;28;20249;-83
2020/12/11 04:16:02;;;;;;;0.67;0.57;;;2.60;99.90;;;;;;5071223;28;20648;-82
2020/12/11 04:18:28;;;;;;;1.20;0.70;;;2.80;99.90;;;;;;5069162;28;20181;-83
2020/12/11 04:20:56;;;;;;;2.00;0.57;;;2.90;99.90;;;;;;5071642;28;20253;-85
2020/12/11 04:23:22;;;;;;;0.40;0.37;;;3.00;99.90;;;;;;5070235;28;20264;-84
2020/12/11 04:25:47;;;;;;;0.73;0.20;;;3.10;99.90;;;;;;5071207;28;20596;-84
2020/12/11 04:28:13;;;;;;;0.67;0.63;;;3.10;99.90;;;;;;5070664;28;20208;-84
2020/12/11 04:30:38;;;;;;;0.37;0.10;;;3.00;99.90;;;;;;5065923;28;20685;-83
2020/12/11 04:33:04;;;;;;;2.37;0.70;;;2.90;99.90;;;;;;5072925;28;20189;-83
2020/12/11 04:35:29;;;;;;;0.90;0.90;;;2.80;99.90;;;;;;5072176;28;20296;-83
2020/12/11 04:37:55;;;;;;;0.37;0.37;;;2.80;99.90;;;;;;5074047;28;20182;-84
2020/12/11 04:40:21;;;;;;;0.70;0.70;;;2.70;99.90;;;;;;5072488;28;20201;-83
2020/12/11 04:42:47;;;;;;;0.40;0.40;;;2.60;99.90;;;;;;5071259;28;20693;-83
2020/12/11 04:45:13;;;;;;;0.93;0.50;;;2.40;99.90;;;;;;5070097;28;20717;-85
2020/12/11 04:47:43;;;;;;;0.30;0.30;;;2.30;99.90;;;;;;5060927;28;20665;-83
2020/12/11 04:50:16;;;;;;;1.60;0.97;;;2.30;99.90;;;;;;5071193;28;20200;-83
2020/12/11 04:52:44;;;;;;;0.73;0.60;;;2.40;99.90;;;;;;5073463;28;20180;-83
2020/12/11 04:55:17;;;;;;;0.50;0.50;;;2.40;99.90;;;;;;5072495;28;20195;-83
2020/12/11 04:57:51;;;;;;;0.23;0.23;;;2.60;99.90;;;;;;5068203;28;21400;-83
2020/12/11 05:00:18;;;;;;;0.57;0.57;;;2.30;99.90;;;;;;5073872;28;20204;-83
2020/12/11 05:02:45;;;;;;;0.37;0.37;;;2.20;99.90;;;;;;5071628;28;20201;-83
2020/12/11 05:05:11;;;;;;;0.47;0.47;;;2.10;99.90;;;;;;5071672;28;20181;-83
2020/12/11 05:07:37;;;;;;;0.80;0.63;;;2.00;99.90;;;;;;5067832;28;20192;-83
2020/12/11 05:10:05;;;;;;;1.07;0.60;;;2.00;99.90;;;;;;5072042;28;20307;-84
2020/12/11 05:12:31;;;;;;;0.53;0.50;;;1.90;99.90;;;;;;5071809;28;20208;-83
2020/12/11 05:15:01;;;;;;;0.27;0.27;;;1.80;99.90;;;;;;5071018;28;20200;-84
2020/12/11 05:17:32;;;;;;;0.50;0.50;;;1.70;99.90;;;;;;5069308;28;20192;-83
2020/12/11 05:19:59;;;;;;;0.33;0.33;;;1.70;99.90;;;;;;5069798;28;20250;-84
2020/12/11 05:22:26;;;;;;;0.43;0.43;;;1.70;99.90;;;;;;5068151;28;20216;-84
2020/12/11 05:24:54;;;;;;;0.30;0.30;;;1.70;99.90;;;;;;5071328;28;20177;-84
2020/12/11 05:27:43;;;;;;;0.50;0.50;;;1.70;99.90;;;;;;5064522;28;20208;-84
2020/12/11 05:30:17;;;;;;;1.03;1.03;;;1.80;99.90;;;;;;5070681;28;20216;-85
2020/12/11 05:32:54;;;;;;;0.60;0.30;;;1.70;99.90;;;;;;5071158;28;20188;-84
2020/12/11 05:35:22;;;;;;;0.77;0.73;;;1.60;99.90;;;;;;5060638;28;20212;-84
2020/12/11 05:37:53;;;;;;;0.10;0.10;;;1.60;99.90;;;;;;5071597;28;20217;-84
2020/12/11 05:40:42;;;;;;;0.77;0.60;;;1.60;99.90;;;;;;5071794;28;20213;-83
2020/12/11 05:43:15;;;;;;;4.47;1.17;;;1.50;99.90;;;;;;5076799;28;20181;-83
2020/12/11 05:45:57;;;;;;;0.20;0.20;;;1.60;99.90;;;;;;5078871;28;20267;-85
2020/12/11 05:48:25;;;;;;;0.20;0.20;;;1.60;99.90;;;;;;5072914;28;20684;-84
2020/12/11 05:50:52;;;;;;;1.37;0.67;;;1.60;99.90;;;;;;5073938;28;20235;-84
2020/12/11 05:53:17;;;;;;;1.40;0.30;;;1.70;99.90;;;;;;5072071;28;20178;-83
2020/12/11 05:55:43;;;;;;;0.30;0.30;;;1.80;99.90;;;;;;5070103;28;20751;-83
2020/12/11 05:58:10;;;;;;;0.57;0.57;;;1.80;99.90;;;;;;5073656;28;20181;-85
2020/12/11 06:00:40;;;;;;;0.70;0.57;;;1.90;99.90;;;;;;5074418;28;20196;-83
2020/12/11 06:03:06;;;;;;;0.53;0.53;;;2.00;99.90;;;;;;5073070;28;20269;-83
2020/12/11 06:05:37;;;;;;;0.40;0.40;;;2.20;99.90;;;;;;5074196;28;20173;-82
2020/12/11 06:08:10;;;;;;;0.23;0.23;;;2.40;99.90;;;;;;5072045;28;20360;-82
2020/12/11 06:10:39;;;;;;;3.83;0.47;;;2.40;99.90;;;;;;5073257;28;20703;-84
2020/12/11 06:13:04;;;;;;;0.53;0.53;;;2.40;99.90;;;;;;5070532;28;20315;-81
2020/12/11 06:15:48;;;;;;;0.47;0.47;;;2.20;99.90;;;;;;5070528;28;20263;-83
2020/12/11 06:18:19;;;;;;;0.57;0.57;;;2.30;99.90;;;;;;5064954;28;20182;-82
2020/12/11 06:20:47;;;;;;;0.50;0.50;;;2.30;99.90;;;;;;5061303;28;20212;-83
2020/12/11 06:23:26;;;;;;;1.00;1.00;;;2.00;99.90;;;;;;5078577;28;20189;-85
2020/12/11 06:26:14;;;;;;;0.77;0.40;;;2.10;99.90;;;;;;5081358;28;20173;-85
2020/12/11 06:28:41;;;;;;;0.83;0.57;;;2.10;99.90;;;;;;5076659;28;20174;-83
2020/12/11 06:31:25;;;;;;;1.50;1.07;;;2.10;99.90;;;;;;5074320;28;20205;-83
2020/12/11 06:33:56;;;;;;;0.47;0.47;;;2.20;99.90;;;;;;5073500;28;20184;-83
2020/12/11 06:36:21;;;;;;;0.20;0.20;;;2.20;99.90;;;;;;5077300;28;20185;-82
2020/12/11 06:38:53;;;;;;;0.30;0.30;;;2.20;99.90;;;;;;5074627;28;20259;-82
2020/12/11 06:41:27;;;;;;;0.60;0.60;;;2.30;99.90;;;;;;5068622;28;21251;-82
2020/12/11 06:43:57;;;;;;;0.70;0.57;;;2.40;99.90;;;;;;5073936;28;20253;-81
2020/12/11 06:46:25;;;;;;;0.40;0.40;;;2.50;99.90;;;;;;5069535;28;20698;-82
2020/12/11 06:49:21;;;;;;;0.20;0.20;;;2.50;99.90;;;;;;5069200;28;20178;-82
2020/12/11 06:51:47;;;;;;;4.33;3.50;;;2.40;99.90;;;;;;5069048;28;20419;-82
2020/12/11 06:54:22;;;;;;;2.30;0.77;;;2.40;99.90;;;;;;5071343;28;20186;-82
2020/12/11 06:56:50;;;;;;;0.73;0.73;;;2.20;99.90;;;;;;5073140;28;20930;-82
2020/12/11 06:59:23;;;;;;;0.17;0.17;;;2.40;99.90;;;;;;5069256;28;20181;-82
2020/12/11 07:01:53;;;;;;;0.47;0.47;;;2.50;99.90;;;;;;5072173;28;20209;-82
2020/12/11 07:04:20;;;;;;;0.90;0.47;;;2.40;99.90;;;;;;5070296;28;20596;-83
2020/12/11 07:06:50;;;;;;;0.47;0.47;;;2.60;99.90;;;;;;5065970;28;20182;-82
2020/12/11 07:09:17;;;;;;;3.50;0.50;;;2.80;99.90;;;;;;5070602;28;20645;-82
2020/12/11 07:11:44;;;;;;;0.80;0.67;;;2.70;99.90;;;;;;5071685;28;20310;-82
2020/12/11 07:14:10;;;;;;;0.10;0.10;;;2.90;99.90;;;;;;5066450;28;20174;-82
2020/12/11 07:16:44;;;;;;;0.93;0.93;;;2.90;99.90;;;;;;5081506;28;20593;-82
2020/12/11 07:19:10;;;;;;;0.40;0.23;;;3.00;99.90;;;;;;5065178;28;20914;-83
2020/12/11 07:21:38;;;;;;;0.77;0.77;;;3.00;99.90;;;;;;5070350;28;20343;-84
2020/12/11 07:24:04;;;;;;;0.70;0.70;;;3.10;99.90;;;;;;5068774;28;20178;-82
2020/12/11 07:26:30;;;;;;;0.30;0.30;;;3.10;99.90;;;;;;5070202;28;20177;-82
2020/12/11 07:29:11;;;;;;;0.93;0.47;;;2.90;99.90;;;;;;5067984;28;20182;-83
2020/12/11 07:31:41;;;;;;;0.20;0.20;;;3.10;99.90;;;;;;5059649;28;20216;-83
2020/12/11 07:34:12;;;;;;;0.03;0.03;;;3.30;99.90;;;;;;5068236;28;20188;-82
2020/12/11 07:36:39;;;;;;;0.83;0.83;;;3.00;99.90;;;;;;5067856;28;20185;-82
2020/12/11 07:39:15;;;;;;;1.23;0.87;;;2.70;99.90;;;;;;5069573;28;20276;-82
2020/12/11 07:41:46;;;;;;;0.33;0.33;;;2.70;99.90;;;;;;5071651;28;20212;-83
2020/12/11 07:44:26;;;;;;;0.77;0.57;;;2.80;99.90;;;;;;5069058;28;20571;-84
2020/12/11 07:46:53;;;;;;;0.83;0.53;;;2.80;99.90;;;;;;5071583;28;20658;-82
2020/12/11 07:49:18;;;;;;;0.70;0.40;;;3.10;99.90;;;;;;5068869;28;20243;-82
2020/12/11 07:51:49;;;;;;;1.20;0.27;;;3.20;99.90;;;;;;5069454;28;20196;-83
2020/12/11 07:54:15;;;;;;;0.80;0.80;;;3.10;99.90;;;;;;5068828;28;20177;-82
2020/12/11 07:56:41;;;;;;;0.33;0.33;;;3.00;99.90;;;;;;5070742;28;20191;-84
2020/12/11 07:59:11;;;;;;;2.23;0.60;;;3.10;99.90;;;;;;5058432;28;20264;-82
2020/12/11 08:01:37;;;;;;;0.30;0.30;;;2.80;99.90;;;;;;5075320;28;20193;-82
2020/12/11 08:04:03;;;;;;;0.33;0.33;;;2.90;99.90;;;;;;5069036;28;20239;-83
2020/12/11 08:06:29;;;;;;;1.67;1.07;;;2.90;99.90;;;;;;5066452;28;20649;-82
2020/12/11 08:08:54;;;;;;;1.40;0.63;;;2.70;99.90;;;;;;5068344;28;20828;-83
2020/12/11 08:11:26;;;;;;;0.67;0.67;;;2.60;99.90;;;;;;5068679;28;20315;-82
2020/12/11 08:14:03;;;;;;;0.20;0.20;;;2.70;99.90;;;;;;5070814;28;20186;-82
2020/12/11 08:16:29;;;;;;;0.40;0.40;;;2.80;99.90;;;;;;5071004;28;20188;-81
2020/12/11 08:18:56;;;;;;;1.07;0.93;;;2.90;99.90;;;;;;5072185;28;20185;-82
2020/12/11 08:21:29;;;;;;;2.47;0.73;;;3.00;99.90;;;;;;5070787;28;20609;-82
2020/12/11 08:23:56;;;;;;;0.73;0.47;;;3.00;99.90;;;;;;5070111;28;20231;-83
2020/12/11 08:26:22;;;;;;;0.60;0.57;;;3.00;99.90;;;;;;5067092;28;20174;-81
2020/12/11 08:29:02;;;;;;;2.47;0.40;;;2.90;99.90;;;;;;5064989;28;20742;-82
2020/12/11 08:31:27;;;;;;;0.30;0.30;;;2.80;99.90;;;;;;5060613;28;20263;-82
2020/12/11 08:34:04;;;;;;;0.37;0.37;;;3.00;99.90;;;;;;5069130;28;20177;-82
2020/12/11 08:36:32;;;;;;;0.47;0.47;;;3.20;99.90;;;;;;5070089;28;20582;-82
2020/12/11 08:39:15;;;;;;;0.63;0.60;;;3.40;99.90;;;;;;5069488;28;20268;-82
2020/12/11 08:45:19;;;;;;;0.90;0.77;;;3.40;99.90;;;;;;5071114;28;20184;-82
2020/12/11 08:50:01;;;;;;;0.87;0.50;;;3.10;99.90;;;;;;5071350;28;20190;-82
2020/12/11 08:52:26;;;;;;;0.97;0.50;;;3.00;99.90;;;;;;5070952;28;20310;-82
2020/12/11 08:54:53;;;;;;;0.43;0.43;;;3.10;99.90;;;;;;5070091;28;20714;-82
2020/12/11 08:57:18;;;;;;;3.30;0.67;;;3.00;99.90;;;;;;5070861;28;20192;-82
2020/12/11 08:59:44;;;;;;;0.93;0.87;;;3.20;99.90;;;;;;5056704;28;20185;-82
2020/12/11 09:02:09;;;;;;;0.17;0.17;;;3.00;99.90;;;;;;5069907;28;20193;-82
2020/12/11 09:04:35;;;;;;;1.13;0.97;;;2.90;99.90;;;;;;5067080;28;20181;-83
2020/12/11 09:07:00;;;;;;;1.20;1.10;;;2.80;99.90;;;;;;5067947;28;20178;-81
2020/12/11 09:09:26;;;;;;;0.70;0.70;;;2.80;99.90;;;;;;5057525;28;20602;-83
2020/12/11 09:11:52;;;;;;;0.43;0.43;;;3.00;99.90;;;;;;5067641;28;20758;-82
2020/12/11 09:14:17;;;;;;;0.30;0.30;;;3.10;99.90;;;;;;5071806;28;20285;-83
2020/12/11 09:16:43;;;;;;;0.97;0.97;;;3.10;99.90;;;;;;5069989;28;20215;-83
2020/12/11 09:19:09;;;;;;;0.57;0.57;;;3.20;99.90;;;;;;5071484;28;20197;-82
2020/12/11 09:21:35;;;;;;;1.83;0.97;;;3.10;99.90;;;;;;5074588;28;20661;-81
2020/12/11 09:24:01;;;;;;;0.40;0.40;;;3.10;99.90;;;;;;5072715;28;20187;-82
2020/12/11 09:26:30;;;;;;;0.50;0.50;;;3.30;99.90;;;;;;5072328;28;20653;-83
2020/12/11 09:29:04;;;;;;;0.63;0.63;;;3.50;99.90;;;;;;5065450;28;20184;-82
2020/12/11 09:31:30;;;;;;;1.83;0.57;;;3.50;99.90;;;;;;5065137;28;20207;-82
2020/12/11 09:33:57;;;;;;;0.63;0.63;;;3.20;99.90;;;;;;5067097;28;20182;-82
2020/12/11 09:36:24;;;;;;;0.57;0.57;;;3.40;99.90;;;;;;5070255;28;20261;-82
2020/12/11 09:38:51;;;;;;;0.80;0.73;;;3.70;99.90;;;;;;5071627;28;20288;-82
2020/12/11 09:41:20;;;;;;;0.37;0.37;;;3.90;99.90;;;;;;5070350;28;20634;-82
2020/12/11 09:49:11;;;;;;;2.07;0.57;;;4.30;99.90;;;;;;5081644;28;20199;-83
2020/12/11 09:51:49;;;;;;;0.40;0.40;;;4.00;99.90;;;;;;5072972;28;20223;-84
2020/12/11 09:54:19;;;;;;;0.80;0.80;;;4.10;99.90;;;;;;5079818;28;20190;-84
2020/12/11 09:56:44;;;;;;;1.30;1.20;;;3.90;99.90;;;;;;5082894;28;20194;-84
2020/12/11 09:59:23;;;;;;;1.93;1.03;;;3.80;99.90;;;;;;5067970;28;20671;-84
2020/12/11 10:04:29;;;;;;;0.67;0.40;;;3.70;99.90;;;;;;5080080;28;20181;-84
2020/12/11 10:06:55;;;;;;;0.63;0.63;;;3.90;99.90;;;;;;5080552;28;20230;-84
2020/12/11 10:09:21;;;;;;;0.93;0.73;;;3.60;99.90;;;;;;5078804;28;20196;-84
2020/12/11 10:11:50;;;;;;;0.40;0.40;;;3.90;99.90;;;;;;5078411;28;20209;-84
2020/12/11 10:14:23;;;;;;;0.37;0.37;;;3.70;99.90;;;;;;5079567;28;20210;-83
2020/12/11 10:16:53;;;;;;;1.07;1.07;;;3.70;99.90;;;;;;5080035;28;20177;-85
2020/12/11 10:19:20;;;;;;;0.80;0.47;;;3.90;99.90;;;;;;5079806;28;20193;-82
2020/12/11 10:21:47;;;;;;;1.93;0.77;;;4.20;99.90;;;;;;5080450;28;20227;-84
2020/12/11 10:24:14;;;;;;;0.30;0.30;;;4.30;99.90;;;;;;5078277;28;20179;-83
2020/12/11 10:26:41;;;;;;;0.67;0.40;;;4.50;99.90;;;;;;5078715;28;20189;-84
2020/12/11 10:29:07;;;;;;;0.57;0.57;;;4.50;99.90;;;;;;5078879;28;20256;-84
2020/12/11 10:31:33;;;;;;;0.50;0.50;;;4.60;99.90;;;;;;5081175;28;20255;-84
2020/12/11 10:33:58;;;;;;;0.57;0.57;;;4.40;99.90;;;;;;5075250;28;20185;-84
2020/12/11 10:36:31;;;;;;;1.17;1.07;;;4.40;99.90;;;;;;5072755;28;20820;-82
2020/12/11 10:38:57;;;;;;;2.07;0.50;;;4.00;99.90;;;;;;5071990;28;20212;-82
2020/12/11 10:41:24;;;;;;;0.47;0.47;;;4.00;99.90;;;;;;5073808;28;20711;-82
2020/12/11 10:43:50;;;;;;;1.17;0.80;;;4.20;99.90;;;;;;5073188;28;20174;-82
2020/12/11 10:46:16;;;;;;;0.50;0.50;;;4.50;99.90;;;;;;5074393;28;20549;-83
2020/12/11 10:48:42;;;;;;;1.40;1.23;;;4.40;99.90;;;;;;5076620;28;20186;-83
2020/12/11 10:51:12;;;;;;;1.33;1.23;;;4.30;99.90;;;;;;5072801;28;20207;-83
2020/12/11 10:53:38;;;;;;;2.87;1.30;;;4.00;99.90;;;;;;5075194;28;20181;-83
2020/12/11 10:56:07;;;;;;;1.47;0.83;;;3.90;99.90;;;;;;5074909;28;20237;-82
2020/12/11 10:58:33;;;;;;;0.60;0.60;;;3.90;99.90;;;;;;5074782;28;20187;-83
2020/12/11 11:01:02;;;;;;;2.47;1.57;;;3.50;99.90;;;;;;5079144;28;20197;-82
2020/12/11 11:03:28;;;;;;;0.43;0.37;;;3.50;99.90;;;;;;5073593;28;20185;-82
2020/12/11 11:05:55;;;;;;;2.80;0.30;;;3.50;99.90;;;;;;5074481;28;20177;-82
2020/12/11 11:08:22;;;;;;;0.40;0.40;;;3.60;99.90;;;;;;5080716;28;20192;-83
2020/12/11 11:10:49;;;;;;;0.20;0.20;;;3.90;99.90;;;;;;5077365;28;20560;-82
2020/12/11 11:13:27;;;;;;;0.20;0.20;;;4.20;99.90;;;;;;5077181;28;20196;-83
2020/12/11 11:15:55;;;;;;;0.40;0.40;;;4.40;99.90;;;;;;5076581;28;20181;-83
2020/12/11 11:21:41;;;;;;;0.40;0.33;;;4.50;99.90;;;;;;5074320;28;20684;-82
2020/12/11 11:24:16;;;;;;;0.87;0.60;;;4.30;99.90;;;;;;5068745;28;20608;-82
2020/12/11 11:27:29;;;;;;;1.07;0.63;;;4.20;99.90;;;;;;5073487;28;20173;-82
2020/12/11 11:29:30;;;;;;;0.97;0.93;;;4.00;99.90;;;;;;5068959;28;20197;-82
2020/12/11 11:31:56;;;;;;;0.70;0.70;;;4.20;99.90;;;;;;5071234;28;20205;-81
2020/12/11 11:34:22;;;;;;;0.30;0.30;;;4.30;99.90;;;;;;5073189;28;20652;-83
2020/12/11 11:36:51;;;;;;;0.60;0.60;;;4.20;99.90;;;;;;5073957;28;20193;-84
2020/12/11 11:39:17;;;;;;;1.70;0.67;;;4.30;99.90;;;;;;5072053;28;20241;-84
2020/12/11 11:41:49;;;;;;;1.47;0.90;;;4.50;99.90;;;;;;5072272;28;20217;-83
2020/12/11 11:46:46;;;;;;;3.57;0.70;;;4.50;99.90;;;;;;5064367;28;20183;-82
2020/12/11 11:49:15;;;;;;;0.97;0.87;;;4.10;99.90;;;;;;5071119;28;20255;-83
2020/12/11 11:51:52;;;;;;;1.43;0.50;;;4.40;99.90;;;;;;5071711;28;20289;-83
2020/12/11 11:54:18;;;;;;;0.87;0.87;;;4.50;99.90;;;;;;5069354;28;20617;-83
2020/12/11 11:56:43;;;;;;;1.50;1.07;;;4.60;99.90;;;;;;5065406;28;20205;-83
2020/12/11 11:59:09;;;;;;;1.27;0.40;;;4.50;99.90;;;;;;5070382;28;20206;-83
2020/12/11 12:01:34;;;;;;;0.97;0.97;;;4.70;99.90;;;;;;5073354;28;20646;-82
2020/12/11 12:04:00;;;;;;;1.50;1.10;;;4.40;99.90;;;;;;5065751;28;20525;-81
2020/12/11 12:06:25;;;;;;;0.67;0.53;;;4.50;99.90;;;;;;5069223;28;20186;-82
2020/12/11 12:08:51;;;;;;;0.53;0.50;;;4.50;99.90;;;;;;5063734;28;20234;-83
2020/12/11 12:11:17;;;;;;;0.43;0.43;;;4.30;99.90;;;;;;5065803;28;20206;-82
2020/12/11 12:13:42;;;;;;;0.50;0.50;;;4.60;99.90;;;;;;5069870;28;20197;-83
2020/12/11 12:16:08;;;;;;;1.67;1.57;;;4.70;99.90;;;;;;5064678;28;20182;-82
2020/12/11 12:18:37;;;;;;;1.17;0.97;;;4.70;99.90;;;;;;5068061;28;20190;-82
2020/12/11 12:21:08;;;;;;;0.67;0.67;;;4.70;99.90;;;;;;5065907;28;20704;-82
2020/12/11 12:28:54;;;;;;;0.50;0.40;;;4.40;99.90;;;;;;5069588;28;20244;-81
2020/12/11 12:31:27;;;;;;;0.70;0.70;;;4.50;99.90;;;;;;5065680;28;20266;-83
2020/12/11 12:44:36;;;;;;;1.30;1.20;;;4.90;99.90;;;;;;5068323;28;20190;-83
2020/12/11 12:47:02;;;;;;;3.57;1.60;;;4.90;99.90;;;;;;5064893;28;20186;-82
2020/12/11 12:49:28;;;;;;;0.50;0.40;;;4.80;99.90;;;;;;5066226;28;20174;-82
2020/12/11 12:51:53;;;;;;;0.20;0.20;;;4.90;99.90;;;;;;5064059;28;20202;-81
2020/12/11 12:54:19;;;;;;;0.97;0.97;;;5.00;99.90;;;;;;5066086;28;20272;-82
2020/12/11 12:56:47;;;;;;;0.30;0.30;;;4.50;99.90;;;;;;5065539;28;20182;-82
2020/12/11 12:59:23;;;;;;;0.40;0.40;;;4.50;99.90;;;;;;5067213;28;20197;-82
2020/12/11 13:04:20;;;;;;;1.90;0.73;;;4.40;99.90;;;;;;5070605;28;20210;-83
2020/12/11 13:06:47;;;;;;;0.63;0.63;;;4.60;99.90;;;;;;5063764;28;20178;-82
2020/12/11 13:09:14;;;;;;;0.50;0.50;;;4.70;99.90;;;;;;5061029;28;20309;-83
2020/12/11 13:11:39;;;;;;;2.53;2.23;;;4.60;99.90;;;;;;5066533;28;20229;-83
2020/12/11 13:14:05;;;;;;;2.53;1.87;;;4.40;99.90;;;;;;5071430;28;20695;-82
2020/12/11 13:16:31;;;;;;;1.67;1.57;;;4.10;99.90;;;;;;5050053;28;20198;-83
2020/12/11 13:18:57;;;;;;;2.03;1.40;;;4.10;99.90;;;;;;5040728;28;20219;-82
2020/12/11 13:21:29;;;;;;;3.17;2.17;;;4.00;99.90;;;;;;5047128;28;20756;-82
2020/12/11 13:29:09;;;;;;;1.67;0.93;;;4.10;99.90;;;;;;5060419;28;20264;-83
2020/12/11 13:31:35;;;;;;;1.57;1.10;;;4.20;99.90;;;;;;5060491;28;20719;-82
2020/12/11 13:34:01;;;;;;;1.40;0.90;;;4.10;99.90;;;;;;5059774;28;20185;-83
2020/12/11 13:36:27;;;;;;;2.23;0.97;;;4.10;99.90;;;;;;5075695;28;20235;-82
2020/12/11 13:38:52;;;;;;;0.67;0.67;;;4.00;99.90;;;;;;5055374;28;20191;-82
2020/12/11 13:41:18;;;;;;;0.87;0.87;;;4.10;99.90;;;;;;5055103;28;20232;-83
2020/12/11 13:43:44;;;;;;;0.70;0.57;;;4.20;99.90;;;;;;5060033;28;20736;-82
2020/12/11 13:46:09;;;;;;;2.23;2.03;;;4.00;99.90;;;;;;5076491;28;20243;-83